sensor_id;sensor_type;location;lat;lon;timestamp;P1;durP1;ratioP1;P2;durP2;ratioP2
3311;SDS011;1668;49.648;8.570;2023-06-10T00:01:36;7.43;;;6.73;;
3311;SDS011;1668;49.648;8.570;2023-06-10T00:04:05;7.67;;;6.87;;
3311;SDS011;1668;49.648;8.570;2023-06-10T00:06:32;6.50;;;5.60;;
3311;SDS011;1668;49.648;8.570;2023-06-10T00:09:01;6.70;;;5.40;;
3311;SDS011;1668;49.648;8.570;2023-06-10T00:11:30;6.00;;;5.23;;
3311;SDS011;1668;49.648;8.570;2023-06-10T00:13:57;5.73;;;5.20;;
3311;SDS011;1668;49.648;8.570;2023-06-10T00:16:23;9.73;;;6.50;;
3311;SDS011;1668;49.648;8.570;2023-06-10T00:18:50;6.87;;;5.70;;
3311;SDS011;1668;49.648;8.570;2023-06-10T00:21:19;12.57;;;6.30;;
3311;SDS011;1668;49.648;8.570;2023-06-10T00:23:45;8.30;;;5.90;;
3311;SDS011;1668;49.648;8.570;2023-06-10T00:26:12;6.43;;;5.20;;
3311;SDS011;1668;49.648;8.570;2023-06-10T00:28:40;7.07;;;5.53;;
3311;SDS011;1668;49.648;8.570;2023-06-10T00:31:06;7.40;;;6.20;;
3311;SDS011;1668;49.648;8.570;2023-06-10T00:33:33;6.37;;;5.70;;
3311;SDS011;1668;49.648;8.570;2023-06-10T00:36:00;6.10;;;5.50;;
3311;SDS011;1668;49.648;8.570;2023-06-10T00:38:29;7.33;;;5.73;;
3311;SDS011;1668;49.648;8.570;2023-06-10T00:40:57;9.30;;;5.83;;
3311;SDS011;1668;49.648;8.570;2023-06-10T00:43:23;7.70;;;5.47;;
3311;SDS011;1668;49.648;8.570;2023-06-10T00:45:50;7.07;;;6.37;;
3311;SDS011;1668;49.648;8.570;2023-06-10T00:48:18;8.13;;;6.30;;
3311;SDS011;1668;49.648;8.570;2023-06-10T00:50:45;6.70;;;6.00;;
3311;SDS011;1668;49.648;8.570;2023-06-10T00:53:12;7.50;;;5.60;;
3311;SDS011;1668;49.648;8.570;2023-06-10T00:55:41;6.20;;;5.60;;
3311;SDS011;1668;49.648;8.570;2023-06-10T00:58:08;5.90;;;5.30;;
3311;SDS011;1668;49.648;8.570;2023-06-10T01:00:35;5.93;;;5.33;;
3311;SDS011;1668;49.648;8.570;2023-06-10T01:03:03;6.90;;;6.20;;
3311;SDS011;1668;49.648;8.570;2023-06-10T01:05:32;6.23;;;5.63;;
3311;SDS011;1668;49.648;8.570;2023-06-10T01:08:00;8.60;;;5.83;;
3311;SDS011;1668;49.648;8.570;2023-06-10T01:10:33;7.00;;;6.07;;
3311;SDS011;1668;49.648;8.570;2023-06-10T01:13:07;6.67;;;6.00;;
3311;SDS011;1668;49.648;8.570;2023-06-10T01:15:36;7.30;;;6.27;;
3311;SDS011;1668;49.648;8.570;2023-06-10T01:18:05;6.30;;;5.67;;
3311;SDS011;1668;49.648;8.570;2023-06-10T01:20:35;6.60;;;5.87;;
3311;SDS011;1668;49.648;8.570;2023-06-10T01:23:07;5.97;;;5.37;;
3311;SDS011;1668;49.648;8.570;2023-06-10T01:25:37;7.53;;;6.20;;
3311;SDS011;1668;49.648;8.570;2023-06-10T01:28:07;6.50;;;5.90;;
3311;SDS011;1668;49.648;8.570;2023-06-10T01:30:39;7.70;;;6.17;;
3311;SDS011;1668;49.648;8.570;2023-06-10T01:33:10;6.87;;;6.17;;
3311;SDS011;1668;49.648;8.570;2023-06-10T01:35:42;6.53;;;5.83;;
3311;SDS011;1668;49.648;8.570;2023-06-10T01:38:12;7.37;;;6.20;;
3311;SDS011;1668;49.648;8.570;2023-06-10T01:40:40;8.30;;;6.20;;
3311;SDS011;1668;49.648;8.570;2023-06-10T01:43:08;8.03;;;5.97;;
3311;SDS011;1668;49.648;8.570;2023-06-10T01:45:35;7.23;;;5.67;;
3311;SDS011;1668;49.648;8.570;2023-06-10T01:48:02;10.50;;;5.97;;
3311;SDS011;1668;49.648;8.570;2023-06-10T01:50:29;6.23;;;5.33;;
3311;SDS011;1668;49.648;8.570;2023-06-10T01:52:56;7.00;;;6.30;;
3311;SDS011;1668;49.648;8.570;2023-06-10T01:55:25;6.47;;;5.40;;
3311;SDS011;1668;49.648;8.570;2023-06-10T01:57:52;7.30;;;6.00;;
3311;SDS011;1668;49.648;8.570;2023-06-10T02:00:19;8.57;;;5.90;;
3311;SDS011;1668;49.648;8.570;2023-06-10T02:02:46;7.50;;;6.50;;
3311;SDS011;1668;49.648;8.570;2023-06-10T02:05:13;8.10;;;6.77;;
3311;SDS011;1668;49.648;8.570;2023-06-10T02:07:40;9.40;;;7.83;;
3311;SDS011;1668;49.648;8.570;2023-06-10T02:10:07;7.60;;;6.80;;
3311;SDS011;1668;49.648;8.570;2023-06-10T02:12:36;8.20;;;7.17;;
3311;SDS011;1668;49.648;8.570;2023-06-10T02:15:03;10.97;;;6.77;;
3311;SDS011;1668;49.648;8.570;2023-06-10T02:17:30;10.30;;;7.67;;
3311;SDS011;1668;49.648;8.570;2023-06-10T02:19:57;8.23;;;7.33;;
3311;SDS011;1668;49.648;8.570;2023-06-10T02:22:24;7.97;;;6.90;;
3311;SDS011;1668;49.648;8.570;2023-06-10T02:24:51;10.53;;;7.30;;
3311;SDS011;1668;49.648;8.570;2023-06-10T02:27:18;8.03;;;7.17;;
3311;SDS011;1668;49.648;8.570;2023-06-10T02:29:48;9.87;;;7.20;;
3311;SDS011;1668;49.648;8.570;2023-06-10T02:32:15;12.30;;;7.33;;
3311;SDS011;1668;49.648;8.570;2023-06-10T02:34:42;12.57;;;7.97;;
3311;SDS011;1668;49.648;8.570;2023-06-10T02:37:09;8.80;;;7.90;;
3311;SDS011;1668;49.648;8.570;2023-06-10T02:39:36;8.30;;;7.50;;
3311;SDS011;1668;49.648;8.570;2023-06-10T02:42:03;11.70;;;8.13;;
3311;SDS011;1668;49.648;8.570;2023-06-10T02:44:31;11.00;;;7.70;;
3311;SDS011;1668;49.648;8.570;2023-06-10T02:46:59;10.77;;;8.53;;
3311;SDS011;1668;49.648;8.570;2023-06-10T02:49:26;9.03;;;8.17;;
3311;SDS011;1668;49.648;8.570;2023-06-10T02:51:53;9.27;;;8.27;;
3311;SDS011;1668;49.648;8.570;2023-06-10T02:54:21;12.83;;;7.80;;
3311;SDS011;1668;49.648;8.570;2023-06-10T02:56:51;12.37;;;8.77;;
3311;SDS011;1668;49.648;8.570;2023-06-10T02:59:20;9.57;;;8.00;;
3311;SDS011;1668;49.648;8.570;2023-06-10T03:01:48;9.20;;;8.00;;
3311;SDS011;1668;49.648;8.570;2023-06-10T03:04:16;9.83;;;8.77;;
3311;SDS011;1668;49.648;8.570;2023-06-10T03:06:43;10.00;;;8.90;;
3311;SDS011;1668;49.648;8.570;2023-06-10T03:09:12;10.17;;;8.27;;
3311;SDS011;1668;49.648;8.570;2023-06-10T03:11:39;12.73;;;8.70;;
3311;SDS011;1668;49.648;8.570;2023-06-10T03:14:06;9.97;;;8.70;;
3311;SDS011;1668;49.648;8.570;2023-06-10T03:16:33;10.20;;;8.00;;
3311;SDS011;1668;49.648;8.570;2023-06-10T03:19:00;8.73;;;7.83;;
3311;SDS011;1668;49.648;8.570;2023-06-10T03:21:28;13.37;;;8.83;;
3311;SDS011;1668;49.648;8.570;2023-06-10T03:23:55;9.60;;;8.60;;
3311;SDS011;1668;49.648;8.570;2023-06-10T03:26:22;9.90;;;8.50;;
3311;SDS011;1668;49.648;8.570;2023-06-10T03:28:49;10.83;;;9.73;;
3311;SDS011;1668;49.648;8.570;2023-06-10T03:31:16;10.67;;;9.33;;
3311;SDS011;1668;49.648;8.570;2023-06-10T03:33:42;10.40;;;9.30;;
3311;SDS011;1668;49.648;8.570;2023-06-10T03:36:09;10.83;;;9.57;;
3311;SDS011;1668;49.648;8.570;2023-06-10T03:38:38;10.27;;;8.83;;
3311;SDS011;1668;49.648;8.570;2023-06-10T03:41:05;10.70;;;9.40;;
3311;SDS011;1668;49.648;8.570;2023-06-10T03:43:32;14.23;;;9.23;;
3311;SDS011;1668;49.648;8.570;2023-06-10T03:45:59;9.97;;;8.87;;
3311;SDS011;1668;49.648;8.570;2023-06-10T03:48:26;17.33;;;8.87;;
3311;SDS011;1668;49.648;8.570;2023-06-10T03:50:53;10.23;;;9.07;;
3311;SDS011;1668;49.648;8.570;2023-06-10T03:53:20;12.60;;;10.60;;
3311;SDS011;1668;49.648;8.570;2023-06-10T03:55:48;9.73;;;8.83;;
3311;SDS011;1668;49.648;8.570;2023-06-10T03:58:15;10.00;;;9.00;;
3311;SDS011;1668;49.648;8.570;2023-06-10T04:00:43;10.17;;;8.93;;
3311;SDS011;1668;49.648;8.570;2023-06-10T04:03:10;10.70;;;9.33;;
3311;SDS011;1668;49.648;8.570;2023-06-10T04:05:39;10.93;;;9.83;;
3311;SDS011;1668;49.648;8.570;2023-06-10T04:08:06;14.00;;;10.57;;
3311;SDS011;1668;49.648;8.570;2023-06-10T04:10:33;12.10;;;10.30;;
3311;SDS011;1668;49.648;8.570;2023-06-10T04:13:02;12.23;;;10.70;;
3311;SDS011;1668;49.648;8.570;2023-06-10T04:15:29;12.23;;;9.87;;
3311;SDS011;1668;49.648;8.570;2023-06-10T04:17:57;14.10;;;10.70;;
3311;SDS011;1668;49.648;8.570;2023-06-10T04:20:25;11.23;;;10.10;;
3311;SDS011;1668;49.648;8.570;2023-06-10T04:22:52;14.60;;;10.63;;
3311;SDS011;1668;49.648;8.570;2023-06-10T04:25:19;10.23;;;9.23;;
3311;SDS011;1668;49.648;8.570;2023-06-10T04:27:46;11.03;;;9.90;;
3311;SDS011;1668;49.648;8.570;2023-06-10T04:30:15;14.40;;;10.30;;
3311;SDS011;1668;49.648;8.570;2023-06-10T04:32:43;13.40;;;9.60;;
3311;SDS011;1668;49.648;8.570;2023-06-10T04:35:11;11.03;;;9.93;;
3311;SDS011;1668;49.648;8.570;2023-06-10T04:37:38;12.70;;;10.20;;
3311;SDS011;1668;49.648;8.570;2023-06-10T04:40:05;12.87;;;10.47;;
3311;SDS011;1668;49.648;8.570;2023-06-10T04:42:33;12.40;;;11.10;;
3311;SDS011;1668;49.648;8.570;2023-06-10T04:45:00;11.27;;;10.17;;
3311;SDS011;1668;49.648;8.570;2023-06-10T04:47:30;12.20;;;9.93;;
3311;SDS011;1668;49.648;8.570;2023-06-10T04:49:58;10.67;;;9.57;;
3311;SDS011;1668;49.648;8.570;2023-06-10T04:52:25;12.27;;;9.90;;
3311;SDS011;1668;49.648;8.570;2023-06-10T04:54:52;11.40;;;10.03;;
3311;SDS011;1668;49.648;8.570;2023-06-10T04:57:19;12.50;;;10.23;;
3311;SDS011;1668;49.648;8.570;2023-06-10T04:59:46;11.43;;;9.93;;
3311;SDS011;1668;49.648;8.570;2023-06-10T05:02:13;11.00;;;9.90;;
3311;SDS011;1668;49.648;8.570;2023-06-10T05:04:42;10.43;;;9.27;;
3311;SDS011;1668;49.648;8.570;2023-06-10T05:07:09;11.50;;;9.87;;
3311;SDS011;1668;49.648;8.570;2023-06-10T05:09:36;9.83;;;8.83;;
3311;SDS011;1668;49.648;8.570;2023-06-10T05:12:03;12.40;;;10.30;;
3311;SDS011;1668;49.648;8.570;2023-06-10T05:14:31;12.73;;;9.80;;
3311;SDS011;1668;49.648;8.570;2023-06-10T05:16:58;11.03;;;9.60;;
3311;SDS011;1668;49.648;8.570;2023-06-10T05:19:25;13.23;;;10.00;;
3311;SDS011;1668;49.648;8.570;2023-06-10T05:21:54;12.77;;;9.23;;
3311;SDS011;1668;49.648;8.570;2023-06-10T05:24:20;11.37;;;9.27;;
3311;SDS011;1668;49.648;8.570;2023-06-10T05:26:48;12.00;;;9.77;;
3311;SDS011;1668;49.648;8.570;2023-06-10T05:29:15;9.97;;;8.97;;
3311;SDS011;1668;49.648;8.570;2023-06-10T05:31:42;11.33;;;9.37;;
3311;SDS011;1668;49.648;8.570;2023-06-10T05:34:09;10.90;;;8.70;;
3311;SDS011;1668;49.648;8.570;2023-06-10T05:36:36;9.83;;;8.80;;
3311;SDS011;1668;49.648;8.570;2023-06-10T05:39:04;9.77;;;8.77;;
3311;SDS011;1668;49.648;8.570;2023-06-10T05:41:31;9.90;;;8.43;;
3311;SDS011;1668;49.648;8.570;2023-06-10T05:43:58;12.10;;;9.10;;
3311;SDS011;1668;49.648;8.570;2023-06-10T05:46:25;9.57;;;8.67;;
3311;SDS011;1668;49.648;8.570;2023-06-10T05:48:52;11.80;;;8.83;;
3311;SDS011;1668;49.648;8.570;2023-06-10T05:51:19;10.40;;;9.27;;
3311;SDS011;1668;49.648;8.570;2023-06-10T05:53:45;10.10;;;9.10;;
3311;SDS011;1668;49.648;8.570;2023-06-10T05:56:14;10.83;;;9.60;;
3311;SDS011;1668;49.648;8.570;2023-06-10T05:58:41;10.13;;;8.60;;
3311;SDS011;1668;49.648;8.570;2023-06-10T06:01:08;9.67;;;8.00;;
3311;SDS011;1668;49.648;8.570;2023-06-10T06:03:35;10.57;;;9.07;;
3311;SDS011;1668;49.648;8.570;2023-06-10T06:06:02;11.10;;;8.97;;
3311;SDS011;1668;49.648;8.570;2023-06-10T06:08:29;11.40;;;8.90;;
3311;SDS011;1668;49.648;8.570;2023-06-10T06:10:56;12.00;;;9.90;;
3311;SDS011;1668;49.648;8.570;2023-06-10T06:13:25;10.50;;;9.40;;
3311;SDS011;1668;49.648;8.570;2023-06-10T06:15:52;9.93;;;8.93;;
3311;SDS011;1668;49.648;8.570;2023-06-10T06:18:18;11.83;;;8.77;;
3311;SDS011;1668;49.648;8.570;2023-06-10T06:20:45;13.60;;;9.10;;
3311;SDS011;1668;49.648;8.570;2023-06-10T06:23:12;10.43;;;8.47;;
3311;SDS011;1668;49.648;8.570;2023-06-10T06:25:39;9.50;;;8.60;;
3311;SDS011;1668;49.648;8.570;2023-06-10T06:28:06;10.37;;;9.20;;
3311;SDS011;1668;49.648;8.570;2023-06-10T06:30:35;10.87;;;9.33;;
3311;SDS011;1668;49.648;8.570;2023-06-10T06:33:02;12.87;;;9.10;;
3311;SDS011;1668;49.648;8.570;2023-06-10T06:35:30;10.50;;;8.63;;
3311;SDS011;1668;49.648;8.570;2023-06-10T06:37:59;11.67;;;9.73;;
3311;SDS011;1668;49.648;8.570;2023-06-10T06:40:26;8.80;;;7.97;;
3311;SDS011;1668;49.648;8.570;2023-06-10T06:42:52;10.23;;;8.90;;
3311;SDS011;1668;49.648;8.570;2023-06-10T06:45:19;11.10;;;8.50;;
3311;SDS011;1668;49.648;8.570;2023-06-10T06:47:48;9.77;;;8.63;;
3311;SDS011;1668;49.648;8.570;2023-06-10T06:50:15;11.70;;;8.63;;
3311;SDS011;1668;49.648;8.570;2023-06-10T06:52:42;10.50;;;8.70;;
3311;SDS011;1668;49.648;8.570;2023-06-10T06:55:09;11.80;;;8.50;;
3311;SDS011;1668;49.648;8.570;2023-06-10T06:57:36;9.50;;;8.03;;
3311;SDS011;1668;49.648;8.570;2023-06-10T07:00:03;8.83;;;8.03;;
3311;SDS011;1668;49.648;8.570;2023-06-10T07:02:33;8.40;;;7.17;;
3311;SDS011;1668;49.648;8.570;2023-06-10T07:05:01;8.87;;;7.90;;
3311;SDS011;1668;49.648;8.570;2023-06-10T07:07:28;8.67;;;7.60;;
3311;SDS011;1668;49.648;8.570;2023-06-10T07:09:55;9.00;;;7.73;;
3311;SDS011;1668;49.648;8.570;2023-06-10T07:12:22;7.53;;;6.83;;
3311;SDS011;1668;49.648;8.570;2023-06-10T07:14:50;8.90;;;7.20;;
3311;SDS011;1668;49.648;8.570;2023-06-10T07:17:17;9.10;;;7.80;;
3311;SDS011;1668;49.648;8.570;2023-06-10T07:19:44;8.13;;;6.57;;
3311;SDS011;1668;49.648;8.570;2023-06-10T07:22:12;8.93;;;7.53;;
3311;SDS011;1668;49.648;8.570;2023-06-10T07:24:39;7.97;;;7.17;;
3311;SDS011;1668;49.648;8.570;2023-06-10T07:27:06;7.90;;;7.10;;
3311;SDS011;1668;49.648;8.570;2023-06-10T07:29:33;7.67;;;6.97;;
3311;SDS011;1668;49.648;8.570;2023-06-10T07:32:01;9.33;;;7.43;;
3311;SDS011;1668;49.648;8.570;2023-06-10T07:34:28;9.20;;;6.50;;
3311;SDS011;1668;49.648;8.570;2023-06-10T07:36:55;9.30;;;7.47;;
3311;SDS011;1668;49.648;8.570;2023-06-10T07:39:23;8.40;;;7.60;;
3311;SDS011;1668;49.648;8.570;2023-06-10T07:41:50;10.70;;;6.70;;
3311;SDS011;1668;49.648;8.570;2023-06-10T07:44:19;8.70;;;6.67;;
3311;SDS011;1668;49.648;8.570;2023-06-10T07:46:45;8.20;;;6.87;;
3311;SDS011;1668;49.648;8.570;2023-06-10T07:49:12;8.70;;;7.50;;
3311;SDS011;1668;49.648;8.570;2023-06-10T07:51:39;8.60;;;7.70;;
3311;SDS011;1668;49.648;8.570;2023-06-10T07:54:06;9.03;;;6.80;;
3311;SDS011;1668;49.648;8.570;2023-06-10T07:56:35;9.17;;;7.17;;
3311;SDS011;1668;49.648;8.570;2023-06-10T07:59:02;7.80;;;6.80;;
3311;SDS011;1668;49.648;8.570;2023-06-10T08:01:29;8.00;;;6.63;;
3311;SDS011;1668;49.648;8.570;2023-06-10T08:03:56;10.23;;;6.90;;
3311;SDS011;1668;49.648;8.570;2023-06-10T08:06:23;7.37;;;6.67;;
3311;SDS011;1668;49.648;8.570;2023-06-10T08:08:50;7.63;;;6.80;;
3311;SDS011;1668;49.648;8.570;2023-06-10T08:11:17;7.60;;;6.40;;
3311;SDS011;1668;49.648;8.570;2023-06-10T08:13:45;7.73;;;6.83;;
3311;SDS011;1668;49.648;8.570;2023-06-10T08:16:12;7.27;;;6.30;;
3311;SDS011;1668;49.648;8.570;2023-06-10T08:18:39;8.07;;;7.13;;
3311;SDS011;1668;49.648;8.570;2023-06-10T08:21:06;8.80;;;7.03;;
3311;SDS011;1668;49.648;8.570;2023-06-10T08:23:33;8.53;;;6.80;;
3311;SDS011;1668;49.648;8.570;2023-06-10T08:26:00;7.97;;;7.13;;
3311;SDS011;1668;49.648;8.570;2023-06-10T08:28:28;7.80;;;7.00;;
3311;SDS011;1668;49.648;8.570;2023-06-10T08:30:56;9.40;;;7.30;;
3311;SDS011;1668;49.648;8.570;2023-06-10T08:33:23;11.90;;;7.03;;
3311;SDS011;1668;49.648;8.570;2023-06-10T08:35:50;8.93;;;7.10;;
3311;SDS011;1668;49.648;8.570;2023-06-10T08:38:17;7.63;;;6.93;;
3311;SDS011;1668;49.648;8.570;2023-06-10T08:40:44;7.80;;;7.10;;
3311;SDS011;1668;49.648;8.570;2023-06-10T08:43:14;9.57;;;7.17;;
3311;SDS011;1668;49.648;8.570;2023-06-10T08:45:48;11.73;;;7.47;;
3311;SDS011;1668;49.648;8.570;2023-06-10T08:48:17;8.40;;;7.40;;
3311;SDS011;1668;49.648;8.570;2023-06-10T08:50:46;7.80;;;7.00;;
3311;SDS011;1668;49.648;8.570;2023-06-10T08:53:17;9.17;;;6.60;;
3311;SDS011;1668;49.648;8.570;2023-06-10T08:55:46;7.43;;;6.73;;
3311;SDS011;1668;49.648;8.570;2023-06-10T08:58:17;9.30;;;6.40;;
3311;SDS011;1668;49.648;8.570;2023-06-10T09:00:44;9.23;;;5.77;;
3311;SDS011;1668;49.648;8.570;2023-06-10T09:03:12;6.87;;;5.83;;
3311;SDS011;1668;49.648;8.570;2023-06-10T09:05:40;7.23;;;5.67;;
3311;SDS011;1668;49.648;8.570;2023-06-10T09:08:08;6.60;;;5.83;;
3311;SDS011;1668;49.648;8.570;2023-06-10T09:10:35;7.73;;;6.37;;
3311;SDS011;1668;49.648;8.570;2023-06-10T09:13:02;9.43;;;6.90;;
3311;SDS011;1668;49.648;8.570;2023-06-10T09:15:29;8.13;;;6.00;;
3311;SDS011;1668;49.648;8.570;2023-06-10T09:17:56;7.50;;;6.70;;
3311;SDS011;1668;49.648;8.570;2023-06-10T09:20:24;6.63;;;5.93;;
3311;SDS011;1668;49.648;8.570;2023-06-10T09:22:53;8.10;;;6.23;;
3311;SDS011;1668;49.648;8.570;2023-06-10T09:25:20;8.20;;;6.03;;
3311;SDS011;1668;49.648;8.570;2023-06-10T09:28:01;7.90;;;6.60;;
3311;SDS011;1668;49.648;8.570;2023-06-10T09:30:28;5.87;;;5.27;;
3311;SDS011;1668;49.648;8.570;2023-06-10T09:32:57;13.03;;;6.20;;
3311;SDS011;1668;49.648;8.570;2023-06-10T09:35:26;8.63;;;6.00;;
3311;SDS011;1668;49.648;8.570;2023-06-10T09:37:55;7.97;;;6.43;;
3311;SDS011;1668;49.648;8.570;2023-06-10T09:40:22;10.80;;;6.20;;
3311;SDS011;1668;49.648;8.570;2023-06-10T09:42:52;8.23;;;6.33;;
3311;SDS011;1668;49.648;8.570;2023-06-10T09:45:20;10.67;;;6.40;;
3311;SDS011;1668;49.648;8.570;2023-06-10T09:47:50;8.37;;;6.53;;
3311;SDS011;1668;49.648;8.570;2023-06-10T09:50:18;7.37;;;6.00;;
3311;SDS011;1668;49.648;8.570;2023-06-10T09:52:45;7.30;;;6.60;;
3311;SDS011;1668;49.648;8.570;2023-06-10T09:55:14;11.53;;;6.57;;
3311;SDS011;1668;49.648;8.570;2023-06-10T09:57:41;9.43;;;6.00;;
3311;SDS011;1668;49.648;8.570;2023-06-10T10:00:13;6.20;;;5.60;;
3311;SDS011;1668;49.648;8.570;2023-06-10T10:02:47;6.20;;;5.60;;
3311;SDS011;1668;49.648;8.570;2023-06-10T10:05:15;12.00;;;6.10;;
3311;SDS011;1668;49.648;8.570;2023-06-10T10:07:43;9.50;;;5.67;;
3311;SDS011;1668;49.648;8.570;2023-06-10T10:10:11;4.70;;;4.20;;
3311;SDS011;1668;49.648;8.570;2023-06-10T10:12:41;6.20;;;4.37;;
3311;SDS011;1668;49.648;8.570;2023-06-10T10:15:09;4.97;;;4.20;;
3311;SDS011;1668;49.648;8.570;2023-06-10T10:17:37;4.97;;;4.33;;
3311;SDS011;1668;49.648;8.570;2023-06-10T10:20:07;5.20;;;4.03;;
3311;SDS011;1668;49.648;8.570;2023-06-10T10:22:38;5.57;;;4.80;;
3311;SDS011;1668;49.648;8.570;2023-06-10T10:25:08;8.70;;;4.83;;
3311;SDS011;1668;49.648;8.570;2023-06-10T10:27:41;5.23;;;4.73;;
3311;SDS011;1668;49.648;8.570;2023-06-10T10:30:11;8.73;;;4.73;;
3311;SDS011;1668;49.648;8.570;2023-06-10T10:32:52;12.10;;;4.30;;
3311;SDS011;1668;49.648;8.570;2023-06-10T10:35:23;4.63;;;4.13;;
3311;SDS011;1668;49.648;8.570;2023-06-10T10:37:52;5.40;;;4.13;;
3311;SDS011;1668;49.648;8.570;2023-06-10T10:40:19;5.00;;;4.30;;
3311;SDS011;1668;49.648;8.570;2023-06-10T10:42:48;9.13;;;4.20;;
3311;SDS011;1668;49.648;8.570;2023-06-10T10:45:16;9.60;;;4.20;;
3311;SDS011;1668;49.648;8.570;2023-06-10T10:47:44;5.97;;;4.33;;
3311;SDS011;1668;49.648;8.570;2023-06-10T10:50:13;6.10;;;4.53;;
3311;SDS011;1668;49.648;8.570;2023-06-10T10:52:51;5.20;;;4.70;;
3311;SDS011;1668;49.648;8.570;2023-06-10T10:55:21;4.53;;;4.13;;
3311;SDS011;1668;49.648;8.570;2023-06-10T10:57:56;7.40;;;4.73;;
3311;SDS011;1668;49.648;8.570;2023-06-10T11:00:25;7.50;;;4.43;;
3311;SDS011;1668;49.648;8.570;2023-06-10T11:02:53;5.77;;;4.97;;
3311;SDS011;1668;49.648;8.570;2023-06-10T11:05:31;9.03;;;4.87;;
3311;SDS011;1668;49.648;8.570;2023-06-10T11:08:02;4.93;;;4.13;;
3311;SDS011;1668;49.648;8.570;2023-06-10T11:10:29;4.60;;;4.17;;
3311;SDS011;1668;49.648;8.570;2023-06-10T11:12:59;7.00;;;4.80;;
3311;SDS011;1668;49.648;8.570;2023-06-10T11:15:26;5.33;;;4.23;;
3311;SDS011;1668;49.648;8.570;2023-06-10T11:18:07;4.70;;;4.30;;
3311;SDS011;1668;49.648;8.570;2023-06-10T11:20:41;4.53;;;4.10;;
3311;SDS011;1668;49.648;8.570;2023-06-10T11:23:30;4.27;;;3.87;;
3311;SDS011;1668;49.648;8.570;2023-06-10T11:26:12;5.03;;;4.57;;
3311;SDS011;1668;49.648;8.570;2023-06-10T11:29:10;5.10;;;4.50;;
3311;SDS011;1668;49.648;8.570;2023-06-10T11:31:41;6.57;;;4.37;;
3311;SDS011;1668;49.648;8.570;2023-06-10T11:34:12;6.70;;;4.17;;
3311;SDS011;1668;49.648;8.570;2023-06-10T11:36:40;3.80;;;3.50;;
3311;SDS011;1668;49.648;8.570;2023-06-10T11:39:10;5.10;;;3.80;;
3311;SDS011;1668;49.648;8.570;2023-06-10T11:41:38;9.20;;;3.90;;
3311;SDS011;1668;49.648;8.570;2023-06-10T11:44:07;6.73;;;3.70;;
3311;SDS011;1668;49.648;8.570;2023-06-10T11:46:36;4.13;;;3.50;;
3311;SDS011;1668;49.648;8.570;2023-06-10T11:49:04;4.17;;;3.77;;
3311;SDS011;1668;49.648;8.570;2023-06-10T11:51:32;5.60;;;3.60;;
3311;SDS011;1668;49.648;8.570;2023-06-10T11:54:01;5.67;;;3.87;;
3311;SDS011;1668;49.648;8.570;2023-06-10T11:56:29;4.60;;;4.20;;
3311;SDS011;1668;49.648;8.570;2023-06-10T11:58:57;4.93;;;4.43;;
3311;SDS011;1668;49.648;8.570;2023-06-10T12:01:30;3.80;;;3.50;;
3311;SDS011;1668;49.648;8.570;2023-06-10T12:03:59;4.50;;;3.60;;
3311;SDS011;1668;49.648;8.570;2023-06-10T12:06:39;4.20;;;3.73;;
3311;SDS011;1668;49.648;8.570;2023-06-10T12:09:07;5.80;;;4.10;;
3311;SDS011;1668;49.648;8.570;2023-06-10T12:11:44;3.67;;;3.23;;
3311;SDS011;1668;49.648;8.570;2023-06-10T12:14:11;5.50;;;3.80;;
3311;SDS011;1668;49.648;8.570;2023-06-10T12:16:40;8.23;;;3.60;;
3311;SDS011;1668;49.648;8.570;2023-06-10T12:19:14;4.27;;;3.47;;
3311;SDS011;1668;49.648;8.570;2023-06-10T12:21:41;5.00;;;3.67;;
3311;SDS011;1668;49.648;8.570;2023-06-10T12:24:08;4.27;;;3.60;;
3311;SDS011;1668;49.648;8.570;2023-06-10T12:26:36;7.03;;;3.60;;
3311;SDS011;1668;49.648;8.570;2023-06-10T12:29:17;4.53;;;3.70;;
3311;SDS011;1668;49.648;8.570;2023-06-10T12:31:57;4.37;;;3.70;;
3311;SDS011;1668;49.648;8.570;2023-06-10T12:34:29;3.70;;;3.17;;
3311;SDS011;1668;49.648;8.570;2023-06-10T12:36:56;4.67;;;3.70;;
3311;SDS011;1668;49.648;8.570;2023-06-10T12:39:23;4.10;;;3.70;;
3311;SDS011;1668;49.648;8.570;2023-06-10T12:41:51;4.23;;;3.83;;
3311;SDS011;1668;49.648;8.570;2023-06-10T12:44:19;6.17;;;3.70;;
3311;SDS011;1668;49.648;8.570;2023-06-10T12:46:59;4.37;;;3.93;;
3311;SDS011;1668;49.648;8.570;2023-06-10T12:49:26;3.97;;;3.57;;
3311;SDS011;1668;49.648;8.570;2023-06-10T12:51:53;4.77;;;4.00;;
3311;SDS011;1668;49.648;8.570;2023-06-10T12:54:20;3.57;;;3.27;;
3311;SDS011;1668;49.648;8.570;2023-06-10T12:56:48;6.70;;;3.70;;
3311;SDS011;1668;49.648;8.570;2023-06-10T12:59:15;7.17;;;3.20;;
3311;SDS011;1668;49.648;8.570;2023-06-10T13:01:42;4.93;;;3.30;;
3311;SDS011;1668;49.648;8.570;2023-06-10T13:04:10;3.73;;;3.40;;
3311;SDS011;1668;49.648;8.570;2023-06-10T13:06:37;6.57;;;3.77;;
3311;SDS011;1668;49.648;8.570;2023-06-10T13:09:07;5.97;;;3.97;;
3311;SDS011;1668;49.648;8.570;2023-06-10T13:11:35;6.30;;;3.50;;
3311;SDS011;1668;49.648;8.570;2023-06-10T13:14:02;5.90;;;4.10;;
3311;SDS011;1668;49.648;8.570;2023-06-10T13:16:31;4.97;;;3.60;;
3311;SDS011;1668;49.648;8.570;2023-06-10T13:18:58;4.53;;;3.83;;
3311;SDS011;1668;49.648;8.570;2023-06-10T13:21:27;4.83;;;3.80;;
3311;SDS011;1668;49.648;8.570;2023-06-10T13:23:54;5.13;;;3.97;;
3311;SDS011;1668;49.648;8.570;2023-06-10T13:26:20;6.57;;;4.07;;
3311;SDS011;1668;49.648;8.570;2023-06-10T13:28:48;4.20;;;3.73;;
3311;SDS011;1668;49.648;8.570;2023-06-10T13:31:15;4.40;;;4.00;;
3311;SDS011;1668;49.648;8.570;2023-06-10T13:33:42;4.00;;;3.60;;
3311;SDS011;1668;49.648;8.570;2023-06-10T13:36:09;4.20;;;3.40;;
3311;SDS011;1668;49.648;8.570;2023-06-10T13:38:38;7.10;;;4.13;;
3311;SDS011;1668;49.648;8.570;2023-06-10T13:41:05;3.70;;;3.40;;
3311;SDS011;1668;49.648;8.570;2023-06-10T13:43:32;5.83;;;3.70;;
3311;SDS011;1668;49.648;8.570;2023-06-10T13:45:59;4.10;;;3.70;;
3311;SDS011;1668;49.648;8.570;2023-06-10T13:48:26;5.77;;;3.30;;
3311;SDS011;1668;49.648;8.570;2023-06-10T13:50:53;3.50;;;3.17;;
3311;SDS011;1668;49.648;8.570;2023-06-10T13:53:20;4.20;;;3.70;;
3311;SDS011;1668;49.648;8.570;2023-06-10T13:55:48;5.93;;;3.40;;
3311;SDS011;1668;49.648;8.570;2023-06-10T13:58:15;5.03;;;3.77;;
3311;SDS011;1668;49.648;8.570;2023-06-10T14:00:42;4.10;;;3.70;;
3311;SDS011;1668;49.648;8.570;2023-06-10T14:03:08;3.83;;;3.33;;
3311;SDS011;1668;49.648;8.570;2023-06-10T14:05:35;3.50;;;2.90;;
3311;SDS011;1668;49.648;8.570;2023-06-10T14:08:02;3.40;;;3.10;;
3311;SDS011;1668;49.648;8.570;2023-06-10T14:10:29;4.20;;;3.57;;
3311;SDS011;1668;49.648;8.570;2023-06-10T14:12:58;4.10;;;3.40;;
3311;SDS011;1668;49.648;8.570;2023-06-10T14:15:25;9.27;;;3.40;;
3311;SDS011;1668;49.648;8.570;2023-06-10T14:17:52;3.43;;;3.03;;
3311;SDS011;1668;49.648;8.570;2023-06-10T14:20:19;5.60;;;3.40;;
3311;SDS011;1668;49.648;8.570;2023-06-10T14:22:46;3.30;;;3.00;;
3311;SDS011;1668;49.648;8.570;2023-06-10T14:25:13;3.10;;;2.80;;
3311;SDS011;1668;49.648;8.570;2023-06-10T14:27:39;4.83;;;3.30;;
3311;SDS011;1668;49.648;8.570;2023-06-10T14:30:08;4.70;;;3.13;;
3311;SDS011;1668;49.648;8.570;2023-06-10T14:32:36;4.20;;;3.60;;
3311;SDS011;1668;49.648;8.570;2023-06-10T14:35:03;5.07;;;3.60;;
3311;SDS011;1668;49.648;8.570;2023-06-10T14:37:30;3.40;;;3.10;;
3311;SDS011;1668;49.648;8.570;2023-06-10T14:39:57;4.37;;;3.47;;
3311;SDS011;1668;49.648;8.570;2023-06-10T14:42:24;5.87;;;3.30;;
3311;SDS011;1668;49.648;8.570;2023-06-10T14:44:50;4.80;;;3.67;;
3311;SDS011;1668;49.648;8.570;2023-06-10T14:47:18;3.80;;;3.50;;
3311;SDS011;1668;49.648;8.570;2023-06-10T14:49:45;4.07;;;3.57;;
3311;SDS011;1668;49.648;8.570;2023-06-10T14:52:12;4.60;;;3.57;;
3311;SDS011;1668;49.648;8.570;2023-06-10T14:54:39;4.80;;;3.97;;
3311;SDS011;1668;49.648;8.570;2023-06-10T14:57:06;4.93;;;3.80;;
3311;SDS011;1668;49.648;8.570;2023-06-10T14:59:33;4.40;;;3.43;;
3311;SDS011;1668;49.648;8.570;2023-06-10T15:02:00;5.10;;;3.87;;
3311;SDS011;1668;49.648;8.570;2023-06-10T15:04:28;4.00;;;3.70;;
3311;SDS011;1668;49.648;8.570;2023-06-10T15:06:55;5.10;;;3.60;;
3311;SDS011;1668;49.648;8.570;2023-06-10T15:09:22;3.83;;;3.43;;
3311;SDS011;1668;49.648;8.570;2023-06-10T15:11:49;4.00;;;3.60;;
3311;SDS011;1668;49.648;8.570;2023-06-10T15:14:16;4.30;;;3.80;;
3311;SDS011;1668;49.648;8.570;2023-06-10T15:16:43;4.23;;;3.77;;